KSBA/SBA METAR and TAF weather

Enter ICAO airport designator
Station Type Date Time Source
KSBA METAR 2019/05/26 01:53 UTC NOAA

KSBA 260153Z 27007KT 10SM FEW020 FEW040 15/11 A2986 RMK AO2 SLP110 T01500111


Station Type Date Time Source
KSBA Decoded METAR 2019/05/26 01:53 UTC NOAA

SANTA BARBARA MUNICIPAL, CA, United States (KSBA) 34-26N 119-51W 3M
May 25, 2019 - 09:53 PM EDT / 2019.05.26 0153 UTC
Wind: from the W (270 degrees) at 8 MPH (7 KT):0
Visibility: 10 mile(s):0
Sky conditions: mostly clear
Temperature: 59.0 F (15.0 C)
Dew Point: 52.0 F (11.1 C)
Relative Humidity: 77%
Pressure (altimeter): 29.86 in. Hg (1011 hPa)
ob: KSBA 260153Z 27007KT 10SM FEW020 FEW040 15/11 A2986 RMK AO2 SLP110 T01500111
cycle: 2

Station Type Date Time Source
KSBA TAF 2019/05/25 21:58 UTC NOAA

TAF
AMD KSBA 252057Z 2521/2618 14009KT P6SM BKN022
FM252300 24009KT P6SM BKN025
FM260300 VRB03KT P6SM OVC025
FM261200 VRB05KT 5SM -SHRA OVC020

Example: see airport list